Time;durP1;ratioP1;P1;durP2;ratioP2;P2;SDS_P1;SDS_P2;PMS_P1;PMS_P2;Temp;Humidity;BMP_temperature;BMP_pressure;BME280_temperature;BME280_humidity;BME280_pressure;Samples;Min_cycle;Max_cycle;Signal;HPM_P1;HPM_P2
2021/12/27 00:00:11;;;;;;;16.47;14.40;;;;;;;4.87;100.00;99127.75;5009392;28;20640;-51
2021/12/27 00:02:38;;;;;;;14.73;13.13;;;;;;;4.87;100.00;99126.06;5021258;28;20660;-50
2021/12/27 00:05:04;;;;;;;15.40;13.80;;;;;;;4.85;100.00;99132.03;5011685;28;20213;-51
2021/12/27 00:07:32;;;;;;;14.80;13.20;;;;;;;4.81;100.00;99126.09;5009592;28;20308;-51
2021/12/27 00:10:00;;;;;;;14.37;12.87;;;;;;;4.79;100.00;99124.41;5015406;28;20281;-50
2021/12/27 00:12:25;;;;;;;14.30;12.87;;;;;;;4.77;100.00;99126.09;5011538;28;20184;-50
2021/12/27 00:14:50;;;;;;;14.83;13.30;;;;;;;4.77;100.00;99129.50;5013360;28;20192;-50
2021/12/27 00:17:16;;;;;;;16.30;13.37;;;;;;;4.77;100.00;99124.38;5013080;28;20217;-50
2021/12/27 00:19:42;;;;;;;14.37;12.87;;;;;;;4.78;100.00;99118.41;5011300;28;20195;-50
2021/12/27 00:22:07;;;;;;;13.77;12.33;;;;;;;4.78;100.00;99122.69;5018272;28;20612;-50
2021/12/27 00:24:32;;;;;;;15.90;14.20;;;;;;;4.80;100.00;99129.50;5014897;28;20645;-49
2021/12/27 00:26:58;;;;;;;14.70;13.17;;;;;;;4.83;100.00;99132.06;5016437;28;20821;-50
2021/12/27 00:29:23;;;;;;;14.60;13.07;;;;;;;4.83;100.00;99110.72;5015278;28;20199;-50
2021/12/27 00:31:49;;;;;;;14.87;13.37;;;;;;;4.84;100.00;99114.97;5017272;28;20274;-50
2021/12/27 00:34:15;;;;;;;15.57;13.97;;;;;;;4.83;100.00;99124.38;5014451;28;20233;-50
2021/12/27 00:36:40;;;;;;;14.90;13.23;;;;;;;4.82;100.00;99117.53;5009714;28;20826;-50
2021/12/27 00:39:06;;;;;;;15.23;13.63;;;;;;;4.79;100.00;99116.72;5014822;28;20200;-49
2021/12/27 00:41:31;;;;;;;15.67;14.03;;;;;;;4.77;100.00;99124.38;5016359;28;20199;-50
2021/12/27 00:43:57;;;;;;;16.30;14.47;;;;;;;4.76;100.00;99129.53;5022011;28;20578;-50
2021/12/27 00:46:22;;;;;;;15.13;13.53;;;;;;;4.77;100.00;99129.50;5009878;28;20270;-50
2021/12/27 00:48:48;;;;;;;14.73;12.73;;;;;;;4.80;100.00;99126.09;5021885;28;20824;-50
2021/12/27 00:51:13;;;;;;;14.27;12.77;;;;;;;4.81;100.00;99120.13;5021304;28;20188;-50
2021/12/27 00:53:38;;;;;;;13.93;12.53;;;;;;;4.83;100.00;99116.69;5025719;28;20230;-50
2021/12/27 00:56:04;;;;;;;14.93;13.43;;;;;;;4.84;100.00;99118.38;5026073;28;20527;-50
2021/12/27 00:58:29;;;;;;;13.93;12.53;;;;;;;4.86;100.00;99124.38;5020079;28;20203;-50
2021/12/27 01:00:55;;;;;;;13.67;12.30;;;;;;;4.87;100.00;99120.94;5018548;28;20692;-50
2021/12/27 01:03:20;;;;;;;13.60;12.23;;;;;;;4.90;100.00;99122.63;5024963;28;20179;-50
2021/12/27 01:05:47;;;;;;;13.90;12.23;;;;;;;4.91;100.00;99115.81;5023587;28;20207;-50
2021/12/27 01:08:13;;;;;;;13.83;12.03;;;;;;;4.91;100.00;99126.91;5019354;28;20343;-50
2021/12/27 01:18:32;;;;;;;14.87;13.27;;;;;;;4.94;100.00;99132.03;5019973;28;20203;-49
2021/12/27 01:20:58;;;;;;;15.23;13.63;;;;;;;4.95;100.00;99132.84;5020219;28;20734;-52
2021/12/27 01:23:24;;;;;;;14.70;13.20;;;;;;;4.92;100.00;99141.44;5021351;28;20192;-50
2021/12/27 01:25:49;;;;;;;14.97;13.37;;;;;;;4.94;100.00;99133.72;5024159;28;20200;-51
2021/12/27 01:28:16;;;;;;;14.93;13.33;;;;;;;4.94;100.00;99139.72;5025897;28;20226;-50
2021/12/27 01:30:47;;;;;;;14.07;12.57;;;;;;;4.95;100.00;99141.41;5023315;28;20212;-50
2021/12/27 01:33:14;;;;;;;14.20;12.80;;;;;;;4.98;100.00;99130.28;5026870;28;20683;-50
2021/12/27 01:35:40;;;;;;;15.93;14.23;;;;;;;4.98;100.00;99137.97;5021766;28;20226;-50
2021/12/27 01:38:06;;;;;;;17.83;14.60;;;;;;;4.97;100.00;99121.75;5022367;28;20648;-50
2021/12/27 01:40:32;;;;;;;17.50;15.13;;;;;;;4.98;100.00;99122.59;5016153;28;20196;-49
2021/12/27 01:43:14;;;;;;;16.37;14.63;;;;;;;4.96;100.00;99132.00;5024265;28;20191;-50
2021/12/27 01:45:42;;;;;;;19.13;16.13;;;;;;;4.94;100.00;99126.03;5024022;28;20218;-51
2021/12/27 01:48:09;;;;;;;19.20;15.17;;;;;;;4.92;100.00;99113.22;5014027;28;20219;-51
2021/12/27 01:50:37;;;;;;;19.23;15.87;;;;;;;4.91;100.00;99121.78;5021135;28;20193;-50
2021/12/27 01:53:03;;;;;;;21.17;16.97;;;;;;;4.87;100.00;99122.63;5026966;28;20194;-50
2021/12/27 01:55:29;;;;;;;22.23;18.40;;;;;;;4.85;100.00;99121.78;5015024;28;20957;-50
2021/12/27 01:57:54;;;;;;;23.43;18.13;;;;;;;4.82;100.00;99126.94;5017187;28;20216;-50
2021/12/27 02:00:20;;;;;;;22.07;18.20;;;;;;;4.79;100.00;99104.72;5021375;28;20275;-53
2021/12/27 02:02:46;;;;;;;19.77;16.00;;;;;;;4.80;100.00;99101.31;5019480;28;20199;-50
2021/12/27 02:05:12;;;;;;;21.67;17.17;;;;;;;4.82;100.00;99096.19;5017156;28;20239;-50
2021/12/27 02:07:38;;;;;;;21.70;17.13;;;;;;;4.82;100.00;99089.34;5021345;28;20225;-50
2021/12/27 02:10:04;;;;;;;20.40;16.77;;;;;;;4.83;100.00;99091.03;5024180;28;20190;-52
2021/12/27 02:12:30;;;;;;;23.73;17.17;;;;;;;4.84;100.00;99084.22;5022634;28;20411;-52
2021/12/27 02:14:56;;;;;;;25.07;17.83;;;;;;;4.82;100.00;99086.78;5019319;28;20458;-50
2021/12/27 02:17:24;;;;;;;21.17;17.13;;;;;;;4.79;100.00;99089.34;5022724;28;20210;-50
2021/12/27 02:19:53;;;;;;;22.50;18.23;;;;;;;4.78;100.00;99084.25;5030109;28;20325;-51
2021/12/27 02:22:21;;;;;;;22.40;17.83;;;;;;;4.79;100.00;99089.34;5030123;28;20195;-52
2021/12/27 02:24:47;;;;;;;20.30;16.03;;;;;;;4.82;100.00;99080.81;5025437;28;20191;-50
2021/12/27 02:27:14;;;;;;;20.87;16.17;;;;;;;4.82;100.00;99081.66;5022079;28;20215;-50
2021/12/27 02:29:40;;;;;;;21.83;17.27;;;;;;;4.85;100.00;99081.63;5024433;28;20199;-50
2021/12/27 02:32:06;;;;;;;21.37;17.13;;;;;;;4.90;100.00;99086.75;5020008;28;20197;-50
2021/12/27 02:34:32;;;;;;;22.03;17.10;;;;;;;4.92;100.00;99082.47;5018171;28;20682;-50
2021/12/27 02:36:57;;;;;;;19.80;16.97;;;;;;;4.95;100.00;99087.56;5022012;28;20211;-50
2021/12/27 02:39:24;;;;;;;21.93;17.43;;;;;;;4.98;100.00;99090.13;5023893;28;20195;-50
2021/12/27 02:41:49;;;;;;;22.57;16.57;;;;;;;5.00;100.00;99084.97;5021615;28;20636;-50
2021/12/27 02:44:15;;;;;;;20.47;16.40;;;;;;;5.03;100.00;99082.41;5029935;28;20256;-50
2021/12/27 02:46:40;;;;;;;21.67;16.43;;;;;;;5.03;100.00;99080.69;5030902;28;20214;-51
2021/12/27 02:49:05;;;;;;;22.07;16.27;;;;;;;5.08;100.00;99084.94;5032795;28;20188;-51
2021/12/27 02:51:31;;;;;;;22.57;16.87;;;;;;;5.08;100.00;99077.25;5039248;28;20250;-50
2021/12/27 02:53:57;;;;;;;20.80;17.13;;;;;;;5.09;100.00;99076.38;5042290;28;20213;-50
2021/12/27 02:56:22;;;;;;;19.30;15.77;;;;;;;5.10;100.00;99084.06;5015378;28;20703;-50
2021/12/27 02:58:48;;;;;;;24.40;17.47;;;;;;;5.11;100.00;99084.94;5021790;28;20287;-50
2021/12/27 03:01:20;;;;;;;24.83;18.20;;;;;;;5.10;100.00;99078.94;5028911;28;20174;-50
2021/12/27 03:03:46;;;;;;;22.73;18.23;;;;;;;5.10;100.00;99072.97;5040322;28;20664;-50
2021/12/27 03:06:12;;;;;;;23.73;17.83;;;;;;;5.10;100.00;99076.38;5042161;28;20213;-51
2021/12/27 03:08:40;;;;;;;23.07;17.83;;;;;;;5.08;100.00;99061.84;5029721;28;20651;-50
2021/12/27 03:11:07;;;;;;;22.83;17.90;;;;;;;5.08;100.00;99069.56;5021291;28;20191;-50
2021/12/27 03:13:35;;;;;;;21.03;16.47;;;;;;;5.08;100.00;99061.84;5018248;28;20521;-51
2021/12/27 03:16:05;;;;;;;23.20;18.20;;;;;;;5.06;100.00;99054.19;5014869;28;20188;-51
2021/12/27 03:18:33;;;;;;;21.00;17.47;;;;;;;5.04;100.00;99055.91;5010990;28;20243;-50
2021/12/27 03:20:58;;;;;;;20.27;16.60;;;;;;;5.01;100.00;99056.75;5026110;28;20596;-50
2021/12/27 03:23:24;;;;;;;17.57;15.57;;;;;;;4.99;100.00;99049.94;5020530;28;20688;-50
2021/12/27 03:25:51;;;;;;;20.43;16.73;;;;;;;4.97;100.00;99052.53;5013318;28;20216;-51
2021/12/27 03:28:17;;;;;;;20.43;16.40;;;;;;;4.96;100.00;99049.97;5013957;28;20208;-50
2021/12/27 03:30:43;;;;;;;21.43;16.53;;;;;;;4.96;100.00;99052.53;5024560;28;20271;-50
2021/12/27 03:33:09;;;;;;;19.60;16.33;;;;;;;4.96;100.00;99050.81;5018249;28;20242;-49
2021/12/27 03:35:38;;;;;;;18.70;15.83;;;;;;;4.96;100.00;99057.66;5019747;28;20229;-50
2021/12/27 03:38:09;;;;;;;19.93;15.83;;;;;;;4.97;100.00;99054.22;5009642;28;20285;-50
2021/12/27 03:40:37;;;;;;;19.03;16.13;;;;;;;4.96;100.00;99058.50;5015452;28;20222;-50
2021/12/27 03:43:03;;;;;;;18.20;16.20;;;;;;;4.98;100.00;99064.50;5023252;28;20245;-50
2021/12/27 03:45:40;;;;;;;19.87;16.60;;;;;;;5.01;100.00;99061.03;5020502;28;20615;-50
2021/12/27 03:48:07;;;;;;;20.93;17.27;;;;;;;5.02;100.00;99065.31;5006634;28;20208;-50
2021/12/27 03:50:34;;;;;;;21.30;17.33;;;;;;;5.00;100.00;99054.22;5021168;28;20215;-50
2021/12/27 03:53:00;;;;;;;23.03;18.10;;;;;;;4.97;100.00;99057.66;5012476;28;20183;-51
2021/12/27 03:55:26;;;;;;;24.00;17.73;;;;;;;4.96;100.00;99065.34;5021418;28;20176;-50
2021/12/27 03:58:05;;;;;;;20.57;16.67;;;;;;;4.94;100.00;99054.22;5017727;28;20250;-51
2021/12/27 04:00:45;;;;;;;20.03;16.93;;;;;;;4.94;100.00;99051.66;5021407;28;20215;-51
2021/12/27 04:03:11;;;;;;;20.20;16.50;;;;;;;4.95;100.00;99053.38;5016573;28;20564;-51
2021/12/27 04:05:36;;;;;;;21.43;17.27;;;;;;;4.95;100.00;99051.69;5019940;28;20219;-50
2021/12/27 04:08:09;;;;;;;21.77;16.83;;;;;;;4.96;100.00;99045.69;5017263;28;20714;-51
2021/12/27 04:10:35;;;;;;;18.97;15.77;;;;;;;4.98;100.00;99045.69;5018183;28;20205;-50
2021/12/27 04:13:01;;;;;;;21.13;16.23;;;;;;;4.98;100.00;99043.09;5020494;28;20279;-50
2021/12/27 04:15:26;;;;;;;19.07;16.77;;;;;;;5.00;100.00;99043.97;5023086;28;20286;-50
2021/12/27 04:17:51;;;;;;;17.07;15.27;;;;;;;5.03;100.00;99046.50;5018504;28;20258;-50
2021/12/27 04:20:18;;;;;;;17.97;15.10;;;;;;;5.06;100.00;99049.06;5019220;28;20267;-50
2021/12/27 04:22:43;;;;;;;18.43;15.53;;;;;;;5.08;100.00;99049.03;5025520;28;20187;-50
2021/12/27 04:25:08;;;;;;;17.87;15.97;;;;;;;5.08;100.00;99049.88;5016828;28;20189;-50
2021/12/27 04:27:34;;;;;;;19.00;16.10;;;;;;;5.10;100.00;99037.91;5016973;28;20203;-50
2021/12/27 04:29:59;;;;;;;19.13;17.07;;;;;;;5.08;100.00;99037.06;5022173;28;20198;-49
2021/12/27 04:32:25;;;;;;;18.37;16.10;;;;;;;5.09;100.00;99037.91;5021649;28;20225;-50
2021/12/27 04:34:50;;;;;;;18.17;14.53;;;;;;;5.07;100.00;99037.06;5022937;28;20531;-50
2021/12/27 04:37:15;;;;;;;17.90;14.90;;;;;;;5.06;100.00;99035.38;5020001;28;20229;-50
2021/12/27 04:39:41;;;;;;;18.17;15.97;;;;;;;5.04;100.00;99031.09;5023194;28;20505;-50
2021/12/27 04:42:07;;;;;;;17.40;14.93;;;;;;;5.04;100.00;99030.25;5023977;28;20183;-49
2021/12/27 04:44:33;;;;;;;17.17;15.03;;;;;;;5.03;100.00;99034.53;5026026;28;20184;-50
2021/12/27 04:46:59;;;;;;;17.63;15.73;;;;;;;5.03;100.00;99029.41;5021623;28;20672;-52
2021/12/27 04:49:24;;;;;;;16.87;15.07;;;;;;;5.06;100.00;99032.81;5023482;28;20180;-52
2021/12/27 04:51:50;;;;;;;16.67;13.83;;;;;;;5.05;100.00;99037.09;5024765;28;20644;-50
2021/12/27 04:54:15;;;;;;;17.10;15.30;;;;;;;5.04;100.00;99020.84;5026510;28;20189;-51
2021/12/27 04:56:41;;;;;;;18.60;15.77;;;;;;;5.02;100.00;99025.13;5023306;28;20214;-51
2021/12/27 04:59:09;;;;;;;19.10;16.30;;;;;;;5.02;100.00;99026.84;5019697;28;20188;-51
2021/12/27 05:01:34;;;;;;;18.37;16.17;;;;;;;4.99;100.00;99017.44;5020497;28;20214;-51
2021/12/27 05:04:00;;;;;;;18.43;15.70;;;;;;;4.98;100.00;99010.66;5020371;28;20187;-51
2021/12/27 05:06:27;;;;;;;15.90;14.27;;;;;;;5.01;100.00;99014.88;5019910;28;20215;-51
2021/12/27 05:08:53;;;;;;;18.13;16.20;;;;;;;5.03;100.00;99011.44;5017180;28;20192;-50
2021/12/27 05:11:19;;;;;;;17.00;15.20;;;;;;;5.07;100.00;99014.00;5011859;28;20580;-51
2021/12/27 05:13:44;;;;;;;17.07;15.37;;;;;;;5.10;100.00;99013.97;5016548;28;20189;-50
2021/12/27 05:16:10;;;;;;;19.77;17.37;;;;;;;5.12;100.00;99005.41;5023811;28;20300;-51
2021/12/27 05:18:35;;;;;;;17.27;15.37;;;;;;;5.13;100.00;98999.41;5015306;28;20996;-51
2021/12/27 05:21:01;;;;;;;17.50;15.70;;;;;;;5.14;100.00;99008.81;5022269;28;20193;-51
2021/12/27 05:23:26;;;;;;;18.53;16.53;;;;;;;5.15;100.00;98999.38;5017628;28;20275;-51
2021/12/27 05:25:52;;;;;;;20.63;18.53;;;;;;;5.13;100.00;98999.41;5015582;28;20648;-51
2021/12/27 05:28:17;;;;;;;22.57;20.37;;;;;;;5.14;100.00;98995.16;5016611;28;20204;-50
2021/12/27 05:30:45;;;;;;;22.50;20.20;;;;;;;5.16;100.00;99001.97;5029009;28;20176;-51
2021/12/27 05:33:10;;;;;;;20.47;18.27;;;;;;;5.16;100.00;98986.56;5023039;28;20267;-51
2021/12/27 05:35:36;;;;;;;20.13;18.13;;;;;;;5.19;100.00;98988.25;5024719;28;20275;-51
2021/12/27 05:38:01;;;;;;;19.93;17.73;;;;;;;5.22;100.00;98984.84;5022982;28;20208;-51
2021/12/27 05:40:26;;;;;;;17.43;15.60;;;;;;;5.24;100.00;98983.94;5012582;28;20211;-50
2021/12/27 05:42:55;;;;;;;17.53;15.83;;;;;;;5.26;100.00;98981.34;5022917;28;20202;-50
2021/12/27 05:45:21;;;;;;;16.37;14.67;;;;;;;5.26;100.00;98981.34;5013357;28;20207;-50
2021/12/27 05:47:47;;;;;;;16.43;14.73;;;;;;;5.28;100.00;98977.06;5022083;28;20209;-51
2021/12/27 05:50:15;;;;;;;17.47;15.70;;;;;;;5.29;100.00;98968.50;5022862;28;20204;-51
2021/12/27 05:52:41;;;;;;;15.63;14.03;;;;;;;5.30;100.00;98965.09;5016605;28;20208;-51
2021/12/27 05:55:08;;;;;;;16.83;15.03;;;;;;;5.31;100.00;98959.91;5013252;28;20656;-50
2021/12/27 05:57:35;;;;;;;17.00;15.27;;;;;;;5.33;100.00;98962.50;5012093;28;20218;-51
2021/12/27 06:00:00;;;;;;;15.73;14.13;;;;;;;5.34;100.00;98961.63;5019033;28;20196;-50
2021/12/27 06:02:26;;;;;;;15.00;13.43;;;;;;;5.37;100.00;98959.00;5015106;28;20225;-50
2021/12/27 06:04:51;;;;;;;18.17;16.20;;;;;;;5.34;100.00;98953.94;5018181;28;20197;-50
2021/12/27 06:07:17;;;;;;;16.90;15.20;;;;;;;5.32;100.00;98961.63;5017413;28;20597;-50
2021/12/27 06:09:42;;;;;;;15.47;13.87;;;;;;;5.32;100.00;98964.19;5025821;28;20197;-50
2021/12/27 06:12:08;;;;;;;18.47;15.33;;;;;;;5.33;100.00;98952.22;5015300;28;20199;-50
2021/12/27 06:14:34;;;;;;;18.00;15.40;;;;;;;5.30;100.00;98949.69;5024190;28;20211;-50
2021/12/27 06:16:59;;;;;;;17.77;14.93;;;;;;;5.28;100.00;98956.53;5013650;28;20508;-51
2021/12/27 06:19:25;;;;;;;17.97;16.17;;;;;;;5.26;100.00;98958.28;5018503;28;20196;-51
2021/12/27 06:21:52;;;;;;;19.10;15.77;;;;;;;5.22;100.00;98951.50;5019041;28;20193;-50
2021/12/27 06:24:17;;;;;;;16.30;14.60;;;;;;;5.19;100.00;98949.78;5020232;28;20190;-50
2021/12/27 06:26:43;;;;;;;16.20;14.50;;;;;;;5.17;100.00;98954.94;5018867;28;20686;-50
2021/12/27 06:29:08;;;;;;;18.13;14.27;;;;;;;5.18;100.00;98948.06;5020531;28;20192;-49
2021/12/27 06:31:34;;;;;;;14.53;13.13;;;;;;;5.18;100.00;98950.63;5014605;28;20550;-50
2021/12/27 06:33:59;;;;;;;15.50;13.97;;;;;;;5.19;100.00;98948.09;5014233;28;20208;-50
2021/12/27 06:36:24;;;;;;;15.33;13.73;;;;;;;5.19;100.00;98948.09;5016241;28;20184;-49
2021/12/27 06:38:50;;;;;;;16.87;15.17;;;;;;;5.19;100.00;98945.50;5012480;28;20187;-50
2021/12/27 06:41:15;;;;;;;14.87;13.33;;;;;;;5.18;100.00;98954.06;5012654;28;20237;-50
2021/12/27 06:43:41;;;;;;;14.63;13.13;;;;;;;5.19;100.00;98952.34;5016473;28;20187;-54
2021/12/27 06:46:06;;;;;;;14.57;13.07;;;;;;;5.19;100.00;98957.47;5014869;28;20208;-51
2021/12/27 06:48:31;;;;;;;14.53;13.03;;;;;;;5.19;100.00;98953.22;5017770;28;20288;-50
2021/12/27 06:50:57;;;;;;;12.93;11.63;;;;;;;5.21;100.00;98952.34;5020196;28;20211;-50
2021/12/27 06:53:23;;;;;;;13.87;12.47;;;;;;;5.22;100.00;98948.91;5009968;28;20920;-50
2021/12/27 06:55:49;;;;;;;14.77;13.27;;;;;;;5.24;100.00;98942.91;5017733;28;20207;-52
2021/12/27 06:58:15;;;;;;;14.93;13.10;;;;;;;5.23;100.00;98941.19;5008416;28;20602;-52
2021/12/27 07:00:41;;;;;;;14.07;12.53;;;;;;;5.26;100.00;98932.63;5017252;28;20186;-52
2021/12/27 07:03:07;;;;;;;13.17;11.97;;;;;;;5.24;100.00;98936.91;5021569;28;20194;-52
2021/12/27 07:05:32;;;;;;;13.20;11.90;;;;;;;5.21;100.00;98936.97;5022787;28;20580;-52
2021/12/27 07:07:57;;;;;;;12.03;10.83;;;;;;;5.14;100.00;98936.16;5022688;28;20207;-50
2021/12/27 07:10:23;;;;;;;13.90;12.60;;;;;;;5.09;100.00;98938.75;5016523;28;20688;-50
2021/12/27 07:12:50;;;;;;;12.93;11.63;;;;;;;5.04;100.00;98935.38;5030765;28;20187;-50
2021/12/27 07:15:15;;;;;;;13.77;12.33;;;;;;;4.98;100.00;98932.84;5030373;28;20189;-51
2021/12/27 07:17:41;;;;;;;13.53;12.13;;;;;;;4.93;100.00;98927.78;5023098;28;20216;-51
2021/12/27 07:20:07;;;;;;;14.10;12.70;;;;;;;4.87;100.00;98930.38;5022323;28;20199;-50
2021/12/27 07:22:33;;;;;;;13.67;12.27;;;;;;;4.85;100.00;98922.72;5014140;28;20206;-50
2021/12/27 07:24:58;;;;;;;14.00;12.60;;;;;;;4.85;100.00;98929.53;5018867;28;20188;-51
2021/12/27 07:27:24;;;;;;;13.80;12.40;;;;;;;4.84;100.00;98918.44;5025977;28;20230;-52
2021/12/27 07:29:49;;;;;;;13.60;12.30;;;;;;;4.86;100.00;98933.78;5023123;28;20569;-50
2021/12/27 07:32:15;;;;;;;13.60;12.20;;;;;;;4.89;100.00;98928.66;5031540;28;20326;-52
2021/12/27 07:34:41;;;;;;;15.23;13.63;;;;;;;4.89;100.00;98931.22;5022133;28;20545;-50
2021/12/27 07:37:06;;;;;;;13.13;11.83;;;;;;;4.88;100.00;98937.19;5027345;28;20207;-50
2021/12/27 07:39:32;;;;;;;15.00;13.27;;;;;;;4.86;100.00;98946.63;5016549;28;20254;-50
2021/12/27 07:41:57;;;;;;;15.37;13.73;;;;;;;4.84;100.00;98948.38;5022640;28;20413;-50
2021/12/27 07:44:24;;;;;;;14.07;12.67;;;;;;;4.84;100.00;98948.38;5016579;28;20272;-51
2021/12/27 07:46:49;;;;;;;15.27;13.77;;;;;;;4.85;100.00;98953.47;5013327;28;20229;-52
2021/12/27 07:49:16;;;;;;;14.47;12.97;;;;;;;4.88;100.00;98952.59;5023247;28;20191;-50
2021/12/27 07:51:41;;;;;;;15.20;13.60;;;;;;;4.88;100.00;98950.03;5022780;28;20245;-50
2021/12/27 07:54:07;;;;;;;13.37;12.00;;;;;;;4.90;100.00;98950.03;5019522;28;20195;-50
2021/12/27 07:56:33;;;;;;;14.80;13.30;;;;;;;4.92;100.00;98946.59;5016796;28;20201;-50
2021/12/27 07:59:03;;;;;;;14.93;13.33;;;;;;;4.92;100.00;98941.44;5018880;28;20463;-51
2021/12/27 08:01:31;;;;;;;16.03;14.33;;;;;;;4.96;100.00;98953.41;5016237;28;20203;-50
2021/12/27 08:03:56;;;;;;;14.80;13.30;;;;;;;4.97;100.00;98942.28;5014092;28;20246;-50
2021/12/27 08:06:21;;;;;;;16.30;14.70;;;;;;;4.99;100.00;98949.94;5012194;28;20929;-50
2021/12/27 08:08:48;;;;;;;14.93;13.27;;;;;;;5.01;100.00;98935.41;5022818;28;20586;-50
2021/12/27 08:11:13;;;;;;;15.70;14.10;;;;;;;5.07;100.00;98942.19;5026466;28;20218;-51
2021/12/27 08:13:42;;;;;;;14.27;12.87;;;;;;;5.15;100.00;98938.69;5018302;28;20226;-51
2021/12/27 08:16:10;;;;;;;17.43;15.63;;;;;;;5.28;100.00;98938.59;5022603;28;20187;-51
2021/12/27 08:18:36;;;;;;;14.97;13.47;;;;;;;5.35;100.00;98940.25;5018245;28;20500;-50
2021/12/27 08:21:01;;;;;;;13.87;12.47;;;;;;;5.43;100.00;98935.03;5010411;28;20188;-51
2021/12/27 08:23:27;;;;;;;14.63;13.13;;;;;;;5.49;100.00;98930.69;5018563;28;20194;-51
2021/12/27 08:25:52;;;;;;;12.93;11.63;;;;;;;5.59;100.00;98931.47;5015487;28;20736;-51
2021/12/27 08:28:18;;;;;;;12.47;11.27;;;;;;;5.66;100.00;98924.53;5013163;28;20216;-51
2021/12/27 08:30:43;;;;;;;12.73;11.53;;;;;;;5.72;100.00;98921.88;5006659;28;20672;-50
2021/12/27 08:33:09;;;;;;;12.93;11.63;;;;;;;5.79;100.00;98913.25;5012486;28;20199;-51
2021/12/27 08:35:36;;;;;;;14.33;12.40;;;;;;;5.85;100.00;98927.75;5012304;28;20185;-51
2021/12/27 08:38:02;;;;;;;13.20;11.87;;;;;;;5.87;100.00;98927.72;5018975;28;20234;-51
2021/12/27 08:40:27;;;;;;;12.53;11.33;;;;;;;5.95;100.00;98928.50;5022806;28;20862;-51
2021/12/27 08:42:53;;;;;;;13.40;12.10;;;;;;;6.04;100.00;98938.66;5020967;28;20219;-51
2021/12/27 08:45:18;;;;;;;13.97;12.57;;;;;;;6.12;100.00;98940.31;5015017;28;20283;-51
2021/12/27 08:47:44;;;;;;;14.73;13.33;;;;;;;6.17;100.00;98947.09;5015574;28;20208;-51
2021/12/27 08:50:12;;;;;;;14.27;12.80;;;;;;;6.22;100.00;98941.88;5021897;28;20183;-51
2021/12/27 08:52:38;;;;;;;13.90;12.60;;;;;;;6.29;100.00;98938.34;5029819;28;20231;-51
2021/12/27 08:55:03;;;;;;;14.47;12.23;;;;;;;6.37;100.00;98936.53;5019821;28;20184;-51
2021/12/27 08:57:31;;;;;;;14.60;13.17;;;;;;;6.47;100.00;98937.28;5010208;28;20678;-50
2021/12/27 08:59:56;;;;;;;14.83;13.43;;;;;;;6.51;100.00;98923.47;5017382;28;20589;-50
2021/12/27 09:02:22;;;;;;;13.77;12.50;;;;;;;6.55;100.00;98925.16;5016102;28;20188;-50
2021/12/27 09:04:47;;;;;;;13.90;12.40;;;;;;;6.62;100.00;98920.75;5017759;28;20265;-50
2021/12/27 09:07:12;;;;;;;13.23;11.97;;;;;;;6.68;100.00;98914.66;5024035;28;20206;-50
2021/12/27 09:09:39;;;;;;;13.40;12.00;;;;;;;6.73;100.00;98919.78;5018521;28;20193;-50
2021/12/27 09:12:06;;;;;;;12.37;11.17;;;;;;;6.73;100.00;98918.03;5021661;28;20221;-50
2021/12/27 09:14:31;;;;;;;12.43;11.13;;;;;;;6.71;100.00;98920.63;5021458;28;20581;-50
2021/12/27 09:16:57;;;;;;;11.10;10.10;;;;;;;6.70;100.00;98913.78;5010680;28;20285;-52
2021/12/27 09:19:22;;;;;;;11.20;10.17;;;;;;;6.68;100.00;98902.69;5021269;28;20213;-52
2021/12/27 09:21:47;;;;;;;12.10;11.00;;;;;;;6.65;100.00;98912.16;5026453;28;20189;-52
2021/12/27 09:24:13;;;;;;;11.70;10.50;;;;;;;6.62;100.00;98904.50;5029016;28;20680;-51
2021/12/27 09:26:39;;;;;;;11.27;10.17;;;;;;;6.65;100.00;98900.16;5010690;28;20561;-51
2021/12/27 09:29:06;;;;;;;12.00;10.90;;;;;;;6.70;100.00;98907.78;5020276;28;20188;-52
2021/12/27 09:31:32;;;;;;;11.80;10.70;;;;;;;6.79;100.00;98901.66;5022672;28;20666;-52
2021/12/27 09:33:57;;;;;;;11.10;10.00;;;;;;;6.83;100.00;98893.88;5028970;28;20184;-51
2021/12/27 09:36:22;;;;;;;11.67;10.47;;;;;;;6.91;100.00;98891.16;5028516;28;20189;-52
2021/12/27 09:38:48;;;;;;;11.07;10.07;;;;;;;6.95;100.00;98884.28;5028209;28;20287;-52
2021/12/27 09:41:14;;;;;;;9.87;8.97;;;;;;;7.00;100.00;98879.88;5028243;28;20276;-51
2021/12/27 09:43:40;;;;;;;9.90;9.00;;;;;;;7.06;100.00;98878.91;5029963;28;20213;-49
2021/12/27 09:46:06;;;;;;;10.10;9.20;;;;;;;7.10;100.00;98883.16;5025029;28;20214;-52
2021/12/27 09:48:34;;;;;;;10.40;9.40;;;;;;;7.11;100.00;98859.94;5018518;28;20221;-57
2021/12/27 09:51:00;;;;;;;10.33;9.33;;;;;;;7.15;100.00;98861.59;5012091;28;20562;-51
2021/12/27 09:53:25;;;;;;;10.13;9.20;;;;;;;7.17;100.00;98861.59;5017267;28;20187;-51
2021/12/27 09:55:51;;;;;;;10.53;9.47;;;;;;;7.20;100.00;98864.09;5014557;28;20560;-50
2021/12/27 09:58:17;;;;;;;9.90;8.97;;;;;;;7.25;100.00;98852.00;5020870;28;20622;-52
2021/12/27 10:00:42;;;;;;;10.47;9.53;;;;;;;7.34;100.00;98845.84;5017378;28;20263;-50
2021/12/27 10:03:09;;;;;;;10.17;9.17;;;;;;;7.40;100.00;98844.88;5024205;28;20190;-52
2021/12/27 10:05:35;;;;;;;10.17;9.27;;;;;;;7.47;100.00;98843.88;5032899;28;20214;-52
2021/12/27 10:08:01;;;;;;;10.10;9.17;;;;;;;7.52;100.00;98846.34;5029470;28;20231;-50
2021/12/27 10:10:27;;;;;;;9.30;8.50;;;;;;;7.50;100.00;98840.38;5030662;28;20223;-51
2021/12/27 10:12:53;;;;;;;10.23;9.33;;;;;;;7.49;100.00;98839.53;5036743;28;20660;-50
2021/12/27 10:15:21;;;;;;;10.73;9.70;;;;;;;7.50;100.00;98837.81;5035951;28;20451;-50
2021/12/27 10:17:48;;;;;;;10.10;9.03;;;;;;;7.43;100.00;98834.50;5014642;28;20212;-50
2021/12/27 10:20:21;;;;;;;9.47;8.67;;;;;;;7.37;100.00;98832.91;5017669;28;20805;-50
2021/12/27 10:22:52;;;;;;;8.87;8.07;;;;;;;7.36;100.00;98830.34;5016434;28;20219;-50
2021/12/27 10:25:20;;;;;;;9.20;8.40;;;;;;;7.38;100.00;98828.59;5034995;28;20194;-51
2021/12/27 10:27:48;;;;;;;8.50;7.80;;;;;;;7.39;100.00;98827.72;5035083;28;20213;-51
2021/12/27 10:30:16;;;;;;;9.77;8.87;;;;;;;7.41;100.00;98824.22;5040146;28;20242;-50
2021/12/27 10:32:43;;;;;;;8.93;8.03;;;;;;;7.43;100.00;98821.66;5014449;28;20192;-50
2021/12/27 10:35:10;;;;;;;9.30;8.43;;;;;;;7.39;100.00;98812.28;5013457;28;20200;-50
2021/12/27 10:37:37;;;;;;;9.37;8.57;;;;;;;7.41;100.00;98802.81;5011691;28;20684;-50
2021/12/27 10:40:03;;;;;;;10.57;9.67;;;;;;;7.47;100.00;98800.94;5014410;28;20214;-50
2021/12/27 10:42:35;;;;;;;11.00;9.90;;;;;;;7.58;100.00;98805.03;5024830;28;20722;-50
2021/12/27 10:45:05;;;;;;;10.17;9.33;;;;;;;7.72;100.00;98802.19;5024820;28;20293;-50
2021/12/27 10:47:38;;;;;;;10.53;9.60;;;;;;;7.85;100.00;98798.44;5019963;28;20353;-50
2021/12/27 10:50:09;;;;;;;10.07;9.17;;;;;;;8.01;100.00;98804.13;5013083;28;20652;-50
2021/12/27 10:52:52;;;;;;;9.83;8.93;;;;;;;8.21;100.00;98803.66;5024414;28;20643;-52
2021/12/27 10:55:23;;;;;;;9.27;8.37;;;;;;;8.39;100.00;98801.56;5019584;28;20235;-50
2021/12/27 10:57:50;;;;;;;8.20;7.40;;;;;;;8.52;100.00;98797.81;5017170;28;20207;-50
2021/12/27 11:00:19;;;;;;;7.80;7.10;;;;;;;8.65;100.00;98805.25;5016764;28;20225;-50
2021/12/27 11:02:45;;;;;;;7.60;7.00;;;;;;;8.76;100.00;98802.41;5013250;28;20230;-50
2021/12/27 11:05:13;;;;;;;7.13;6.53;;;;;;;8.82;100.00;98803.09;5018878;28;20286;-50
2021/12/27 11:07:40;;;;;;;7.03;6.43;;;;;;;8.93;100.00;98792.47;5015642;28;20219;-50
2021/12/27 11:10:06;;;;;;;7.53;6.83;;;;;;;9.00;100.00;98788.00;5024671;28;20190;-50
2021/12/27 11:12:31;;;;;;;6.97;6.37;;;;;;;9.08;100.00;98787.78;5020338;28;20275;-50
2021/12/27 11:14:57;;;;;;;6.43;5.87;;;;;;;9.11;100.00;98796.31;5016120;28;20267;-50
2021/12/27 11:17:22;;;;;;;6.10;5.50;;;;;;;9.16;100.00;98798.75;5012035;28;20537;-50
2021/12/27 11:19:47;;;;;;;6.37;5.77;;;;;;;9.18;100.00;98794.41;5028233;28;20195;-50
2021/12/27 11:22:13;;;;;;;6.17;5.67;;;;;;;9.20;100.00;98796.94;5021924;28;20207;-50